createdAt,value
2022-12-26T00:00:19.275Z,96753.69
2022-12-26T00:02:45.766Z,96766.56
2022-12-26T00:05:12.328Z,96767.50
2022-12-26T00:07:38.673Z,96779.41
2022-12-26T00:10:05.528Z,96779.31
2022-12-26T00:12:31.905Z,96773.91
2022-12-26T00:14:58.246Z,96782.44
2022-12-26T00:17:24.584Z,96780.53
2022-12-26T00:19:50.927Z,96774.56
2022-12-26T00:22:18.250Z,96774.28
2022-12-26T00:24:44.588Z,96774.28
2022-12-26T00:27:10.915Z,96773.03
2022-12-26T00:29:37.252Z,96769.16
2022-12-26T00:32:03.846Z,96766.56
2022-12-26T00:34:30.206Z,96766.38
2022-12-26T00:36:56.544Z,96758.56
2022-12-26T00:39:22.855Z,96763.53
2022-12-26T00:41:49.199Z,96765.84
2022-12-26T00:44:15.539Z,96754.25
2022-12-26T00:46:42.021Z,96752.44
2022-12-26T00:49:08.416Z,96756.59
2022-12-26T00:51:34.740Z,96753.72
2022-12-26T00:54:01.083Z,96754.94
2022-12-26T00:56:27.436Z,96747.09
2022-12-26T00:58:53.819Z,96755.16
2022-12-26T01:01:22.888Z,96750.34
2022-12-26T01:03:50.528Z,96745.66
2022-12-26T01:06:17.376Z,96745.41
2022-12-26T01:08:44.428Z,96757.94
2022-12-26T01:11:13.607Z,96757.75
2022-12-26T01:13:39.938Z,96759.88
2022-12-26T01:16:07.342Z,96759.88
2022-12-26T01:18:34.339Z,96757.63
2022-12-26T01:21:10.355Z,96765.84
2022-12-26T01:23:36.748Z,96765.50
2022-12-26T01:26:16.652Z,96769.59
2022-12-26T01:28:47.673Z,96766.81
2022-12-26T01:31:14.081Z,96764.22
2022-12-26T01:33:40.500Z,96765.75
2022-12-26T01:36:06.962Z,96762.19
2022-12-26T01:38:33.296Z,96765.66
2022-12-26T01:41:29.838Z,96765.56
2022-12-26T01:44:02.839Z,96773.00
2022-12-26T01:46:39.662Z,96777.09
2022-12-26T01:49:15.167Z,96770.66
2022-12-26T01:51:46.352Z,96776.88
2022-12-26T01:54:38.310Z,96785.00
2022-12-26T01:57:04.030Z,96779.47
2022-12-26T01:59:35.359Z,96770.81
2022-12-26T02:02:01.985Z,96765.41
2022-12-26T02:04:59.245Z,96775.97
2022-12-26T02:07:26.450Z,96759.06
2022-12-26T02:09:53.195Z,96759.28
2022-12-26T02:12:40.887Z,96763.03
2022-12-26T02:15:13.331Z,96760.34
2022-12-26T02:17:41.247Z,96762.00
2022-12-26T02:20:20.742Z,96768.41
2022-12-26T02:23:01.436Z,96766.81
2022-12-26T02:25:30.567Z,96766.91
2022-12-26T02:28:32.264Z,96764.25
2022-12-26T02:31:21.888Z,96753.72
2022-12-26T02:34:01.628Z,96760.59
2022-12-26T02:36:50.065Z,96759.97
2022-12-26T02:39:43.609Z,96760.72
2022-12-26T02:42:38.198Z,96774.56
2022-12-26T02:45:43.633Z,96783.97
2022-12-26T02:48:13.521Z,96787.53
2022-12-26T02:51:36.745Z,96775.41
2022-12-26T02:54:27.881Z,96782.50
2022-12-26T02:57:24.423Z,96774.97
2022-12-26T03:00:24.094Z,96777.00
2022-12-26T03:03:17.177Z,96785.28
2022-12-26T03:06:11.268Z,96781.13
2022-12-26T03:09:03.354Z,96773.09
2022-12-26T03:11:58.312Z,96785.28
2022-12-26T03:14:33.105Z,96784.25
2022-12-26T03:17:21.313Z,96780.72
2022-12-26T03:20:17.942Z,96781.88
2022-12-26T03:23:18.615Z,96782.25
2022-12-26T03:26:09.656Z,96787.09
2022-12-26T03:28:36.072Z,96776.88
2022-12-26T03:31:07.795Z,96776.94
2022-12-26T03:33:57.801Z,96775.59
2022-12-26T03:36:35.160Z,96771.44
2022-12-26T03:39:48.433Z,96771.19
2022-12-26T03:43:01.109Z,96768.88
2022-12-26T03:45:58.352Z,96762.97
2022-12-26T03:48:53.957Z,96775.53
2022-12-26T03:51:49.991Z,96779.31
2022-12-26T03:54:43.047Z,96782.63
2022-12-26T03:57:36.264Z,96780.97
2022-12-26T04:00:28.420Z,96779.03
2022-12-26T04:03:19.054Z,96783.31
2022-12-26T04:06:08.124Z,96778.47
2022-12-26T04:09:09.829Z,96784.53
2022-12-26T04:11:57.956Z,96776.28
2022-12-26T04:14:55.436Z,96770.75
2022-12-26T04:18:15.429Z,96768.66
2022-12-26T04:20:47.657Z,96767.88
2022-12-26T04:23:44.882Z,96777.16
2022-12-26T04:26:39.299Z,96761.59
2022-12-26T04:29:24.524Z,96760.50
2022-12-26T04:32:29.649Z,96758.22
2022-12-26T04:35:36.822Z,96750.75
2022-12-26T04:38:24.382Z,96764.53
2022-12-26T04:41:16.885Z,96751.25
2022-12-26T04:44:03.210Z,96744.81
2022-12-26T04:46:31.991Z,96751.69
2022-12-26T04:49:18.600Z,96764.19
2022-12-26T04:51:44.991Z,96768.13
2022-12-26T04:54:11.324Z,96758.47
2022-12-26T04:56:37.770Z,96762.66
2022-12-26T04:59:04.182Z,96762.66
2022-12-26T05:01:49.411Z,96765.97
2022-12-26T05:04:36.660Z,96772.63
2022-12-26T05:07:24.012Z,96766.91
2022-12-26T05:09:53.284Z,96775.72
2022-12-26T05:12:20.546Z,96761.84
2022-12-26T05:14:46.964Z,96769.53
2022-12-26T05:17:32.543Z,96761.22
2022-12-26T05:20:34.638Z,96763.72
2022-12-26T05:23:21.107Z,96771.31
2022-12-26T05:26:07.432Z,96762.91
2022-12-26T05:28:43.069Z,96763.72
2022-12-26T05:31:15.563Z,96754.56
2022-12-26T05:34:01.212Z,96761.94
2022-12-26T05:36:34.697Z,96768.81
2022-12-26T05:39:01.805Z,96782.94
2022-12-26T05:41:28.171Z,96780.47
2022-12-26T05:43:54.564Z,96782.56
2022-12-26T05:46:20.956Z,96790.91
2022-12-26T05:48:47.314Z,96795.19
2022-12-26T05:51:13.942Z,96788.66
2022-12-26T05:53:40.454Z,96785.91
2022-12-26T05:56:12.029Z,96786.16
2022-12-26T05:58:39.285Z,96789.50
2022-12-26T06:01:05.824Z,96777.88
2022-12-26T06:03:32.904Z,96771.19
2022-12-26T06:05:59.413Z,96774.50
2022-12-26T06:08:25.748Z,96778.09
2022-12-26T06:10:52.076Z,96770.25
2022-12-26T06:13:18.411Z,96767.41
2022-12-26T06:15:44.725Z,96768.81
2022-12-26T06:18:11.058Z,96763.81
2022-12-26T06:20:40.533Z,96765.59
2022-12-26T06:23:07.001Z,96754.31
2022-12-26T06:25:33.339Z,96761.44
2022-12-26T06:27:59.700Z,96746.69
2022-12-26T06:30:26.071Z,96762.41
2022-12-26T06:32:52.381Z,96757.41
2022-12-26T06:35:18.715Z,96760.72
2022-12-26T06:37:45.044Z,96759.31
2022-12-26T06:40:11.413Z,96757.50
2022-12-26T06:42:37.739Z,96748.94
2022-12-26T06:45:04.437Z,96751.66
2022-12-26T06:47:30.797Z,96746.53
2022-12-26T06:49:57.155Z,96751.66
2022-12-26T06:52:23.500Z,96753.25
2022-12-26T06:54:49.809Z,96747.50
2022-12-26T06:57:16.179Z,96744.28
2022-12-26T06:59:42.640Z,96737.94
2022-12-26T07:02:11.007Z,96722.28
2022-12-26T07:04:37.418Z,96738.34
2022-12-26T07:07:03.828Z,96728.69
2022-12-26T07:09:33.800Z,96742.59
2022-12-26T07:12:01.555Z,96743.13
2022-12-26T07:14:27.900Z,96757.88
2022-12-26T07:16:54.552Z,96740.00
2022-12-26T07:19:20.956Z,96749.41
2022-12-26T07:21:47.276Z,96745.94
2022-12-26T07:24:19.210Z,96750.25
2022-12-26T07:26:46.670Z,96737.41
2022-12-26T07:29:13.984Z,96738.94
2022-12-26T07:31:41.180Z,96738.94
2022-12-26T07:34:08.501Z,96743.34
2022-12-26T07:36:34.913Z,96741.44
2022-12-26T07:39:01.244Z,96748.44
2022-12-26T07:41:47.526Z,96738.09
2022-12-26T07:44:13.863Z,96750.47
2022-12-26T07:46:40.242Z,96758.06
2022-12-26T07:49:07.564Z,96768.06
2022-12-26T07:51:34.062Z,96757.00
2022-12-26T07:54:03.162Z,96749.59
2022-12-26T07:56:34.179Z,96749.22
2022-12-26T07:59:00.548Z,96742.28
2022-12-26T08:01:28.042Z,96741.72
2022-12-26T08:03:54.623Z,96754.09
2022-12-26T08:06:21.269Z,96764.31
2022-12-26T08:08:51.041Z,96758.13
2022-12-26T08:11:21.317Z,96761.53
2022-12-26T08:13:47.661Z,96755.44
2022-12-26T08:16:15.086Z,96760.69
2022-12-26T08:18:42.333Z,96748.16
2022-12-26T08:21:09.029Z,96747.91
2022-12-26T08:23:35.417Z,96753.25
2022-12-26T08:26:09.567Z,96744.34
2022-12-26T08:28:36.324Z,96752.13
2022-12-26T08:31:09.822Z,96746.22
2022-12-26T08:33:36.740Z,96752.81
2022-12-26T08:36:08.605Z,96752.03
2022-12-26T08:38:35.423Z,96744.00
2022-12-26T08:41:02.259Z,96743.25
2022-12-26T08:43:53.215Z,96746.06
2022-12-26T08:46:16.388Z,96744.66
2022-12-26T08:48:42.853Z,96755.34
2022-12-26T08:51:15.877Z,96754.19
2022-12-26T08:53:42.548Z,96763.47
2022-12-26T08:56:13.424Z,96763.47
2022-12-26T08:58:39.804Z,96770.34
2022-12-26T09:01:12.768Z,96774.25
2022-12-26T09:03:40.051Z,96777.53
2022-12-26T09:06:06.870Z,96768.97
2022-12-26T09:08:34.827Z,96764.53
2022-12-26T09:11:06.414Z,96785.13
2022-12-26T09:13:33.555Z,96777.41
2022-12-26T09:16:08.008Z,96781.44
2022-12-26T09:18:35.109Z,96801.19
2022-12-26T09:21:06.917Z,96805.50
2022-12-26T09:23:35.063Z,96800.28
2022-12-26T09:26:06.904Z,96794.81
2022-12-26T09:28:34.507Z,96782.28
2022-12-26T09:31:10.012Z,96800.41
2022-12-26T09:33:37.622Z,96795.59
2022-12-26T09:36:14.793Z,96783.84
2022-12-26T09:38:42.692Z,96798.63
2022-12-26T09:41:30.959Z,96807.94
2022-12-26T09:44:25.566Z,96804.50
2022-12-26T09:47:25.216Z,96808.50
2022-12-26T09:50:18.658Z,96817.94
2022-12-26T09:53:05.659Z,96812.72
2022-12-26T09:55:42.456Z,96832.59
2022-12-26T09:58:27.881Z,96829.69
2022-12-26T10:01:05.585Z,96839.66
2022-12-26T10:03:38.492Z,96843.09
2022-12-26T10:06:15.624Z,96873.94
2022-12-26T10:08:52.490Z,96842.56
2022-12-26T10:11:55.263Z,96838.41
2022-12-26T10:14:35.800Z,96825.03
2022-12-26T10:17:11.324Z,96842.00
2022-12-26T10:19:48.650Z,96842.38
2022-12-26T10:22:31.398Z,96847.81
2022-12-26T10:25:01.275Z,96847.25
2022-12-26T10:27:31.818Z,96848.06
2022-12-26T10:30:03.452Z,96859.91
2022-12-26T10:32:38.235Z,96884.47
2022-12-26T10:35:23.480Z,96871.47
2022-12-26T10:37:52.936Z,96883.19
2022-12-26T10:40:26.991Z,96885.31
2022-12-26T10:42:59.434Z,96894.97
2022-12-26T10:45:37.844Z,96885.53
2022-12-26T10:48:04.750Z,96894.69
2022-12-26T10:50:33.155Z,96902.25
2022-12-26T10:53:01.177Z,96920.13
2022-12-26T10:55:35.033Z,96936.59
2022-12-26T10:58:13.281Z,96950.72
2022-12-26T11:00:39.595Z,96948.34
2022-12-26T11:03:07.431Z,96949.53
2022-12-26T11:06:06.361Z,96938.81
2022-12-26T11:08:43.016Z,96937.38
2022-12-26T11:11:14.847Z,96934.66
2022-12-26T11:13:52.628Z,96940.03
2022-12-26T11:16:31.511Z,96931.47
2022-12-26T11:18:58.637Z,96932.91
2022-12-26T11:21:28.226Z,96938.84
2022-12-26T11:24:06.819Z,96941.84
2022-12-26T11:26:33.184Z,96939.81
2022-12-26T11:29:14.969Z,96929.81
2022-12-26T11:31:43.840Z,96936.13
2022-12-26T11:34:17.194Z,96940.75
2022-12-26T11:36:50.812Z,96936.38
2022-12-26T11:39:30.387Z,96929.47
2022-12-26T11:41:57.640Z,96933.25
2022-12-26T11:44:28.520Z,96939.34
2022-12-26T11:47:16.388Z,96933.78
2022-12-26T11:49:49.464Z,96929.00
2022-12-26T11:52:38.554Z,96931.88
2022-12-26T11:55:23.319Z,96933.41
2022-12-26T11:58:02.086Z,96935.44
2022-12-26T12:00:29.673Z,96930.31
2022-12-26T12:02:56.043Z,96934.69
2022-12-26T12:05:28.226Z,96936.50
2022-12-26T12:08:16.449Z,96937.44
2022-12-26T12:11:17.249Z,96943.41
2022-12-26T12:13:57.795Z,96950.78
2022-12-26T12:16:58.115Z,96940.19
2022-12-26T12:19:33.282Z,96943.06
2022-12-26T12:22:37.339Z,96940.06
2022-12-26T12:25:35.580Z,96948.63
2022-12-26T12:28:17.517Z,96942.44
2022-12-26T12:30:56.896Z,96949.34
2022-12-26T12:33:46.146Z,96936.75
2022-12-26T12:36:18.581Z,96941.00
2022-12-26T12:39:10.658Z,96942.72
2022-12-26T12:41:48.855Z,96937.69
2022-12-26T12:44:30.200Z,96947.69
2022-12-26T12:47:20.670Z,96944.47
2022-12-26T12:49:52.914Z,96947.44
2022-12-26T12:52:41.905Z,96943.63
2022-12-26T12:55:20.242Z,96949.13
2022-12-26T12:57:50.996Z,96945.19
2022-12-26T13:00:21.716Z,96949.72
2022-12-26T13:03:11.050Z,96935.19
2022-12-26T13:05:57.683Z,96935.75
2022-12-26T13:08:46.968Z,96946.75
2022-12-26T13:11:45.680Z,96942.81
2022-12-26T13:14:22.068Z,96943.03
2022-12-26T13:16:55.181Z,96944.94
2022-12-26T13:19:28.823Z,96944.69
2022-12-26T13:22:02.200Z,96934.38
2022-12-26T13:24:48.752Z,96929.72
2022-12-26T13:27:21.349Z,96918.78
2022-12-26T13:29:48.847Z,96918.66
2022-12-26T13:32:17.396Z,96917.72
2022-12-26T13:34:45.819Z,96918.69
2022-12-26T13:37:39.308Z,96912.47
2022-12-26T13:40:21.494Z,96910.91
2022-12-26T13:43:30.427Z,96917.81
2022-12-26T13:45:57.821Z,96917.34
2022-12-26T13:48:27.222Z,96921.28
2022-12-26T13:50:56.690Z,96926.41
2022-12-26T13:53:26.176Z,96924.59
2022-12-26T13:56:02.684Z,96924.59
2022-12-26T13:58:31.810Z,96920.56
2022-12-26T14:01:25.838Z,96921.41
2022-12-26T14:04:26.383Z,96918.78
2022-12-26T14:07:24.054Z,96931.84
2022-12-26T14:10:16.886Z,96931.66
2022-12-26T14:13:07.744Z,96931.75
2022-12-26T14:15:55.423Z,96918.69
2022-12-26T14:18:46.520Z,96929.75
2022-12-26T14:21:29.823Z,96924.25
2022-12-26T14:24:26.922Z,96932.22
2022-12-26T14:27:27.351Z,96944.13
2022-12-26T14:30:06.782Z,96937.44
2022-12-26T14:32:43.260Z,96930.31
2022-12-26T14:35:34.153Z,96921.72
2022-12-26T14:38:06.349Z,96924.38
2022-12-26T14:40:36.172Z,96927.47
2022-12-26T14:43:10.440Z,96938.66
2022-12-26T14:45:36.766Z,96938.53
2022-12-26T14:48:15.045Z,96939.19
2022-12-26T14:50:49.337Z,96926.72
2022-12-26T14:53:24.943Z,96930.88
2022-12-26T14:55:54.040Z,96922.44
2022-12-26T14:58:52.167Z,96925.16
2022-12-26T15:01:21.634Z,96929.06
2022-12-26T15:03:58.817Z,96929.94
2022-12-26T15:06:25.083Z,96919.25
2022-12-26T15:09:24.457Z,96912.22
2022-12-26T15:12:04.643Z,96918.78
2022-12-26T15:14:55.149Z,96930.06
2022-12-26T15:17:33.738Z,96936.28
2022-12-26T15:20:42.290Z,96920.31
2022-12-26T15:23:26.884Z,96923.66
2022-12-26T15:26:11.979Z,96909.38
2022-12-26T15:29:22.635Z,96927.72
2022-12-26T15:32:09.621Z,96920.31
2022-12-26T15:35:03.659Z,96925.19
2022-12-26T15:37:51.784Z,96877.00
2022-12-26T15:40:28.613Z,96889.63
2022-12-26T15:43:31.168Z,96896.75
2022-12-26T15:46:05.582Z,96901.03
2022-12-26T15:48:50.499Z,96914.94
2022-12-26T15:51:28.981Z,96924.94
2022-12-26T15:54:22.752Z,96919.09
2022-12-26T15:57:15.960Z,96890.94
2022-12-26T15:59:57.570Z,96884.13
2022-12-26T16:02:27.025Z,96895.13
2022-12-26T16:05:01.171Z,96891.06
2022-12-26T16:07:49.345Z,96893.53
2022-12-26T16:10:28.221Z,96894.75
2022-12-26T16:13:22.501Z,96911.16
2022-12-26T16:15:56.810Z,96898.19
2022-12-26T16:18:29.102Z,96875.81
2022-12-26T16:21:17.348Z,96923.38
2022-12-26T16:23:45.578Z,96941.00
2022-12-26T16:26:29.049Z,96925.88
2022-12-26T16:28:57.493Z,96924.47
2022-12-26T16:31:26.391Z,96932.34
2022-12-26T16:33:56.987Z,96938.75
2022-12-26T16:36:26.854Z,96937.38
2022-12-26T16:38:54.085Z,96942.44
2022-12-26T16:41:27.898Z,96958.50
2022-12-26T16:43:56.131Z,96971.00
2022-12-26T16:46:28.714Z,96967.66
2022-12-26T16:49:01.124Z,96954.84
2022-12-26T16:51:54.795Z,96973.88
2022-12-26T16:54:21.107Z,96982.44
2022-12-26T16:56:57.227Z,96976.59
2022-12-26T16:59:28.748Z,96961.25
2022-12-26T17:01:57.991Z,96951.88
2022-12-26T17:04:27.182Z,96955.78
2022-12-26T17:06:57.521Z,96974.34
2022-12-26T17:09:26.615Z,96974.59
2022-12-26T17:11:58.959Z,96975.75
2022-12-26T17:14:31.032Z,96973.47
2022-12-26T17:17:03.835Z,96981.19
2022-12-26T17:19:35.963Z,96999.50
2022-12-26T17:22:20.688Z,96994.63
2022-12-26T17:24:51.606Z,96988.56
2022-12-26T17:27:24.881Z,96993.56
2022-12-26T17:30:00.452Z,96995.94
2022-12-26T17:32:36.390Z,97008.44
2022-12-26T17:35:06.518Z,96989.06
2022-12-26T17:37:33.792Z,96985.59
2022-12-26T17:40:19.693Z,96982.19
2022-12-26T17:42:52.790Z,96989.94
2022-12-26T17:45:25.229Z,96990.28
2022-12-26T17:47:53.751Z,96987.19
2022-12-26T17:50:21.654Z,96985.41
2022-12-26T17:52:48.413Z,96992.19
2022-12-26T17:55:20.956Z,96992.19
2022-12-26T17:57:48.679Z,96985.06
2022-12-26T18:00:18.362Z,96979.56
2022-12-26T18:02:44.863Z,96972.56
2022-12-26T18:05:11.779Z,96978.06
2022-12-26T18:07:38.199Z,96987.91
2022-12-26T18:10:05.134Z,96993.88
2022-12-26T18:12:31.456Z,96985.31
2022-12-26T18:15:02.205Z,96979.81
2022-12-26T18:17:31.909Z,97008.63
2022-12-26T18:19:58.885Z,97012.69
2022-12-26T18:22:25.272Z,97027.19
2022-12-26T18:24:51.673Z,97016.47
2022-12-26T18:27:27.235Z,97026.72
2022-12-26T18:29:53.622Z,97005.78
2022-12-26T18:32:24.560Z,96991.72
2022-12-26T18:34:51.646Z,97011.03
2022-12-26T18:37:18.688Z,96990.88
2022-12-26T18:39:45.293Z,96997.56
2022-12-26T18:42:13.783Z,97016.72
2022-12-26T18:44:41.023Z,96999.34
2022-12-26T18:47:09.469Z,97013.03
2022-12-26T18:49:35.812Z,97031.63
2022-12-26T18:52:02.188Z,97034.81
2022-12-26T18:54:28.519Z,97041.13
2022-12-26T18:56:54.898Z,97045.78
2022-12-26T18:59:21.248Z,97044.81
2022-12-26T19:01:47.727Z,97058.25
2022-12-26T19:04:17.540Z,97059.09
2022-12-26T19:06:43.885Z,97057.44
2022-12-26T19:09:14.229Z,97051.25
2022-12-26T19:11:42.066Z,97066.00
2022-12-26T19:14:16.186Z,97067.44
2022-12-26T19:16:42.679Z,97056.00
2022-12-26T19:19:09.171Z,97067.66
2022-12-26T19:21:35.549Z,97077.44
2022-12-26T19:24:01.943Z,97078.66
2022-12-26T19:26:28.368Z,97076.94
2022-12-26T19:28:55.822Z,97079.47
2022-12-26T19:31:23.670Z,97078.25
2022-12-26T19:33:50.123Z,97081.94
2022-12-26T19:36:17.347Z,97083.13
2022-12-26T19:38:43.810Z,97081.94
2022-12-26T19:41:12.796Z,97097.75
2022-12-26T19:43:40.117Z,97102.63
2022-12-26T19:46:11.184Z,97094.28
2022-12-26T19:48:38.719Z,97091.88
2022-12-26T19:51:08.333Z,97097.34
2022-12-26T19:53:36.181Z,97089.03
2022-12-26T19:56:10.900Z,97103.47
2022-12-26T19:58:37.920Z,97103.81
2022-12-26T20:01:16.285Z,97105.84
2022-12-26T20:03:44.417Z,97109.22
2022-12-26T20:06:14.984Z,97092.59
2022-12-26T20:08:42.556Z,97126.22
2022-12-26T20:11:14.883Z,97123.31
2022-12-26T20:13:42.988Z,97121.22
2022-12-26T20:16:45.995Z,97133.25
2022-12-26T20:19:01.156Z,97140.69
2022-12-26T20:21:27.816Z,97147.56
2022-12-26T20:23:54.179Z,97159.13
2022-12-26T20:26:23.239Z,97163.34
2022-12-26T20:28:50.681Z,97170.44
2022-12-26T20:31:21.119Z,97172.34
2022-12-26T20:33:49.441Z,97176.94
2022-12-26T20:36:19.919Z,97193.28
2022-12-26T20:38:46.548Z,97205.97
2022-12-26T20:41:13.215Z,97207.53
2022-12-26T20:43:40.521Z,97204.28
2022-12-26T20:46:16.933Z,97209.00
2022-12-26T20:48:44.127Z,97201.28
2022-12-26T20:51:13.795Z,97215.50
2022-12-26T20:53:41.361Z,97219.44
2022-12-26T20:56:08.309Z,97219.91
2022-12-26T20:58:35.614Z,97215.63
2022-12-26T21:01:07.249Z,97235.69
2022-12-26T21:03:35.123Z,97233.69
2022-12-26T21:06:13.225Z,97249.78
2022-12-26T21:08:41.481Z,97244.56
2022-12-26T21:11:16.253Z,97240.00
2022-12-26T21:13:44.365Z,97237.47
2022-12-26T21:16:16.159Z,97241.44
2022-12-26T21:18:42.546Z,97252.94
2022-12-26T21:21:15.228Z,97257.31
2022-12-26T21:23:42.069Z,97267.97
2022-12-26T21:26:09.338Z,97266.94
2022-12-26T21:28:36.365Z,97263.06
2022-12-26T21:31:03.424Z,97260.78
2022-12-26T21:33:30.837Z,97276.84
2022-12-26T21:35:57.297Z,97264.09
2022-12-26T21:38:27.294Z,97259.72
2022-12-26T21:40:53.621Z,97265.91
2022-12-26T21:43:19.957Z,97266.31
2022-12-26T21:45:46.287Z,97261.72
2022-12-26T21:48:12.624Z,97265.16
2022-12-26T21:50:44.013Z,97279.69
2022-12-26T21:53:10.874Z,97273.38
2022-12-26T21:55:38.561Z,97274.88
2022-12-26T21:58:07.351Z,97277.63
2022-12-26T22:00:35.260Z,97282.63
2022-12-26T22:03:21.548Z,97275.91
2022-12-26T22:05:48.222Z,97279.69
2022-12-26T22:08:15.077Z,97284.41
2022-12-26T22:11:04.993Z,97286.81
2022-12-26T22:13:39.544Z,97295.28
2022-12-26T22:16:08.522Z,97300.59
2022-12-26T22:18:43.247Z,97302.88
2022-12-26T22:21:13.571Z,97312.50
2022-12-26T22:23:40.764Z,97308.94
2022-12-26T22:26:08.493Z,97295.66
2022-12-26T22:28:34.921Z,97296.59
2022-12-26T22:31:01.626Z,97292.88
2022-12-26T22:33:28.844Z,97299.75
2022-12-26T22:35:55.777Z,97303.31
2022-12-26T22:38:22.272Z,97301.09
2022-12-26T22:40:59.299Z,97303.09
2022-12-26T22:43:26.568Z,97309.13
2022-12-26T22:45:53.513Z,97309.44
2022-12-26T22:48:20.313Z,97312.28
2022-12-26T22:50:50.689Z,97313.16
2022-12-26T22:53:17.039Z,97320.56
2022-12-26T22:55:57.582Z,97327.34
2022-12-26T22:58:24.016Z,97329.03
2022-12-26T23:00:50.383Z,97330.50
2022-12-26T23:03:16.859Z,97336.31
2022-12-26T23:05:43.774Z,97330.78
2022-12-26T23:08:17.266Z,97338.84
2022-12-26T23:10:44.401Z,97347.84
2022-12-26T23:13:12.590Z,97345.38
2022-12-26T23:15:50.062Z,97353.59
2022-12-26T23:18:51.140Z,97352.97
2022-12-26T23:21:43.715Z,97357.84
2022-12-26T23:24:18.128Z,97359.53
2022-12-26T23:27:20.833Z,97352.53
2022-12-26T23:30:06.658Z,97349.84
2022-12-26T23:32:34.345Z,97364.88
2022-12-26T23:35:00.921Z,97372.03
2022-12-26T23:37:27.252Z,97370.94
2022-12-26T23:39:53.583Z,97371.44
2022-12-26T23:42:19.908Z,97368.72
2022-12-26T23:44:46.283Z,97383.22
2022-12-26T23:47:12.624Z,97378.44
2022-12-26T23:49:39.059Z,97390.44
2022-12-26T23:52:05.467Z,97388.22
2022-12-26T23:54:31.824Z,97396.75
2022-12-26T23:56:58.520Z,97389.69
2022-12-26T23:59:24.995Z,97384.91
